Time;durP1;ratioP1;P1;durP2;ratioP2;P2;SDS_P1;SDS_P2;PMS_P1;PMS_P2;Temp;Humidity;BMP_temperature;BMP_pressure;BME280_temperature;BME280_humidity;BME280_pressure;Samples;Min_cycle;Max_cycle;Signal;HPM_P1;HPM_P2
2022/11/06 00:02:23;;;;;;;;;;;11.00;99.90;;;;;;5100323;28;20321;-44
2022/11/06 00:04:48;;;;;;;;;;;11.00;99.90;;;;;;5103534;28;19912;-35
2022/11/06 00:07:14;;;;;;;;;;;11.00;99.90;;;;;;5092938;28;19908;-36
2022/11/06 00:09:39;;;;;;;;;;;11.00;99.90;;;;;;5099194;28;19912;-44
2022/11/06 00:12:05;;;;;;;;;;;11.00;99.90;;;;;;5111039;28;19960;-42
2022/11/06 00:14:30;;;;;;;;;;;11.00;99.90;;;;;;5102808;28;19908;-41
2022/11/06 00:16:56;;;;;;;;;;;11.00;99.90;;;;;;5100219;28;19907;-40
2022/11/06 00:19:21;;;;;;;;;;;11.00;99.90;;;;;;5094848;28;20004;-37
2022/11/06 00:21:47;;;;;;;;;;;11.00;99.90;;;;;;5094654;28;20465;-39
2022/11/06 00:24:13;;;;;;;;;;;11.00;99.90;;;;;;5102915;28;19914;-32
2022/11/06 00:26:38;;;;;;;;;;;11.10;99.90;;;;;;5091863;28;20264;-32
2022/11/06 00:29:04;;;;;;;;;;;11.10;99.90;;;;;;5091472;28;19908;-43
2022/11/06 00:31:31;;;;;;;;;;;11.10;99.90;;;;;;5109059;28;19908;-32
2022/11/06 00:33:57;;;;;;;;;;;11.10;99.90;;;;;;5098536;28;20253;-32
2022/11/06 00:36:23;;;;;;;;;;;11.10;99.90;;;;;;5098357;28;20408;-33
2022/11/06 00:38:53;;;;;;;;;;;11.10;99.90;;;;;;5097692;28;20360;-31
2022/11/06 00:41:19;;;;;;;;;;;11.10;99.90;;;;;;5106027;28;20007;-36
2022/11/06 00:43:48;;;;;;;;;;;11.10;99.90;;;;;;5105502;28;20346;-36
2022/11/06 00:46:14;;;;;;;;;;;11.00;99.90;;;;;;5105309;28;19954;-33
2022/11/06 00:48:40;;;;;;;;;;;11.00;99.90;;;;;;5099012;28;19912;-33
2022/11/06 00:51:10;;;;;;;;;;;11.10;99.90;;;;;;5108195;28;19908;-33
2022/11/06 00:53:36;;;;;;;;;;;11.10;99.90;;;;;;5112711;28;19908;-33
2022/11/06 00:56:04;;;;;;;;;;;11.00;99.90;;;;;;5104031;28;19914;-34
2022/11/06 00:58:30;;;;;;;;;;;11.10;99.90;;;;;;5110679;28;20387;-32
2022/11/06 01:00:56;;;;;;;;;;;11.10;99.90;;;;;;5104061;28;19911;-37
2022/11/06 01:03:21;;;;;;;;;;;11.10;99.90;;;;;;5116004;28;20282;-35
2022/11/06 01:05:47;;;;;;;;;;;11.00;99.90;;;;;;5116303;28;20356;-37
2022/11/06 01:08:12;;;;;;;;;;;11.00;99.90;;;;;;5115988;28;19911;-35
2022/11/06 01:10:38;;;;;;;;;;;11.00;99.90;;;;;;5107433;28;19907;-35
2022/11/06 01:13:03;;;;;;;;;;;11.10;99.90;;;;;;5100851;28;19908;-32
2022/11/06 01:15:29;;;;;;;;;;;11.00;99.90;;;;;;5101253;28;20364;-40
2022/11/06 01:17:54;;;;;;;;;;;11.10;99.90;;;;;;5105020;28;19947;-36
2022/11/06 01:20:20;;;;;;;;;;;11.00;99.90;;;;;;5110822;28;19923;-33
2022/11/06 01:22:45;;;;;;;;;;;11.10;99.90;;;;;;5095438;28;19908;-32
2022/11/06 01:25:10;;;;;;;;;;;11.00;99.90;;;;;;5112371;28;20360;-33
2022/11/06 01:27:36;;;;;;;;;;;11.00;99.90;;;;;;5100620;28;19955;-32
2022/11/06 01:30:02;;;;;;;;;;;11.10;99.90;;;;;;5103451;28;20338;-57
2022/11/06 01:32:27;;;;;;;;;;;11.10;99.90;;;;;;5101793;28;19914;-34
2022/11/06 01:34:53;;;;;;;;;;;11.10;99.90;;;;;;5114689;28;19908;-32
2022/11/06 01:37:18;;;;;;;;;;;11.20;99.90;;;;;;5113861;28;19969;-32
2022/11/06 01:39:44;;;;;;;;;;;11.10;99.90;;;;;;5103477;28;19927;-35
2022/11/06 01:42:10;;;;;;;;;;;11.10;99.90;;;;;;5097783;28;19915;-33
2022/11/06 01:44:41;;;;;;;;;;;11.10;99.90;;;;;;5100531;28;20002;-34
2022/11/06 01:47:24;;;;;;;;;;;11.20;99.90;;;;;;5105601;28;20368;-34
2022/11/06 01:49:51;;;;;;;;;;;11.20;99.90;;;;;;5108363;28;20343;-33
2022/11/06 01:52:18;;;;;;;;;;;11.10;99.90;;;;;;5104215;28;19915;-35
2022/11/06 01:54:45;;;;;;;;;;;11.20;99.90;;;;;;5107778;28;20292;-33
2022/11/06 01:57:11;;;;;;;;;;;11.20;99.90;;;;;;5112004;28;20379;-35
2022/11/06 01:59:38;;;;;;;;;;;11.10;99.90;;;;;;5102950;28;20345;-32
2022/11/06 02:02:04;;;;;;;;;;;11.20;99.90;;;;;;5097211;28;20390;-32
2022/11/06 02:04:32;;;;;;;;;;;11.20;99.90;;;;;;5098890;28;19965;-32
2022/11/06 02:06:58;;;;;;;;;;;11.20;99.90;;;;;;5094107;28;19908;-34
2022/11/06 02:09:24;;;;;;;;;;;11.20;99.90;;;;;;5107859;28;19918;-33
2022/11/06 02:12:16;;;;;;;;;;;11.20;99.90;;;;;;5104273;28;19916;-32
2022/11/06 02:14:47;;;;;;;;;;;11.20;99.90;;;;;;5093831;28;19916;-36
2022/11/06 02:17:12;;;;;;;;;;;11.20;99.90;;;;;;5102488;28;20318;-33
2022/11/06 02:20:02;;;;;;;;;;;11.20;99.90;;;;;;5093855;28;19919;-31
2022/11/06 02:22:46;;;;;;;;;;;11.30;99.90;;;;;;5097678;28;20372;-34
2022/11/06 02:25:17;;;;;;;;;;;11.20;99.90;;;;;;5113824;28;20298;-34
2022/11/06 02:27:45;;;;;;;;;;;11.20;99.90;;;;;;5107539;28;19915;-34
2022/11/06 02:30:11;;;;;;;;;;;11.20;99.90;;;;;;5101091;28;19912;-36
2022/11/06 02:32:46;;;;;;;;;;;11.20;99.90;;;;;;5097845;28;19907;-33
2022/11/06 02:35:15;;;;;;;;;;;11.20;99.90;;;;;;5099724;28;19970;-33
2022/11/06 02:37:42;;;;;;;;;;;11.10;99.90;;;;;;5100500;28;19933;-32
2022/11/06 02:40:09;;;;;;;;;;;11.20;99.90;;;;;;5098436;28;19915;-32
2022/11/06 02:42:37;;;;;;;;;;;11.20;99.90;;;;;;5093861;28;19908;-33
2022/11/06 02:45:03;;;;;;;;;;;11.10;99.90;;;;;;5098488;28;20435;-34
2022/11/06 02:47:31;;;;;;;;;;;11.20;99.90;;;;;;5105251;28;19912;-40
2022/11/06 02:49:59;;;;;;;;;;;11.20;99.90;;;;;;5100958;28;20375;-54
2022/11/06 02:52:28;;;;;;;;;;;11.20;99.90;;;;;;5106073;28;19908;-40
2022/11/06 02:55:06;;;;;;;;;;;11.10;99.90;;;;;;5105282;28;20381;-39
2022/11/06 02:57:35;;;;;;;;;;;11.10;99.90;;;;;;5098924;28;20267;-41
2022/11/06 03:00:08;;;;;;;;;;;11.10;99.90;;;;;;5097315;28;19911;-40
2022/11/06 03:02:43;;;;;;;;;;;11.20;99.90;;;;;;5096895;28;20045;-33
2022/11/06 03:05:09;;;;;;;;;;;11.20;99.90;;;;;;5094523;28;19948;-35
2022/11/06 03:07:49;;;;;;;;;;;11.20;99.90;;;;;;5093021;28;20387;-34
2022/11/06 03:10:15;;;;;;;;;;;11.20;99.90;;;;;;5109079;28;19951;-36
2022/11/06 03:12:54;;;;;;;;;;;11.10;99.90;;;;;;5093941;28;20313;-35
2022/11/06 03:15:42;;;;;;;;;;;11.10;99.90;;;;;;5093302;28;20368;-38
2022/11/06 03:18:07;;;;;;;;;;;11.10;99.90;;;;;;5108125;28;19907;-37
2022/11/06 03:20:39;;;;;;;;;;;11.10;99.90;;;;;;5103666;28;19916;-32
2022/11/06 03:23:05;;;;;;;;;;;11.20;99.90;;;;;;5113125;28;20352;-32
2022/11/06 03:25:34;;;;;;;;;;;11.20;99.90;;;;;;5106528;28;19915;-31
2022/11/06 03:28:18;;;;;;;;;;;11.20;99.90;;;;;;5109092;28;19907;-32
2022/11/06 03:30:48;;;;;;;;;;;11.30;99.90;;;;;;5110177;28;19952;-40
2022/11/06 03:33:16;;;;;;;;;;;11.30;99.90;;;;;;5098794;28;20360;-40
2022/11/06 03:35:53;;;;;;;;;;;11.20;99.90;;;;;;5112376;28;20359;-39
2022/11/06 03:38:26;;;;;;;;;;;11.20;99.90;;;;;;5111639;28;20321;-39
2022/11/06 03:40:56;;;;;;;;;;;11.20;99.90;;;;;;5096055;28;19912;-38
2022/11/06 03:43:25;;;;;;;;;;;11.30;99.90;;;;;;5099997;28;20371;-40
2022/11/06 03:45:51;;;;;;;;;;;11.30;99.90;;;;;;5101478;28;19908;-39
2022/11/06 03:48:40;;;;;;;;;;;11.20;99.90;;;;;;5110018;28;20283;-39
2022/11/06 03:51:08;;;;;;;;;;;11.30;99.90;;;;;;5094015;28;20317;-40
2022/11/06 03:53:44;;;;;;;;;;;11.30;99.90;;;;;;5106255;28;19915;-41
2022/11/06 03:56:20;;;;;;;;;;;11.30;99.90;;;;;;5097835;28;20347;-40
2022/11/06 03:58:47;;;;;;;;;;;11.20;99.90;;;;;;5092698;28;19916;-40
2022/11/06 04:01:31;;;;;;;;;;;11.20;99.90;;;;;;5098943;28;19911;-35
2022/11/06 04:04:05;;;;;;;;;;;11.30;99.90;;;;;;5101239;28;19947;-38
2022/11/06 04:06:34;;;;;;;;;;;11.30;99.90;;;;;;5112543;28;20294;-39
2022/11/06 04:14:31;;;;;;;;;;;11.30;99.90;;;;;;5106512;28;19914;-40
2022/11/06 04:16:58;;;;;;;;;;;11.30;99.90;;;;;;5116194;28;20283;-38
2022/11/06 04:19:24;;;;;;;;;;;11.30;99.90;;;;;;5100810;28;19916;-43
2022/11/06 04:21:49;;;;;;;;;;;11.40;99.90;;;;;;5105420;28;19908;-40
2022/11/06 04:27:13;;;;;;;;;;;11.40;99.90;;;;;;5105772;28;19931;-39
2022/11/06 04:30:01;;;;;;;;;;;11.40;99.90;;;;;;5105364;28;20030;-40
2022/11/06 04:32:38;;;;;;;;;;;11.40;99.90;;;;;;5102767;28;20005;-40
2022/11/06 04:35:24;;;;;;;;;;;11.40;99.90;;;;;;5105691;28;19960;-40
2022/11/06 04:38:08;;;;;;;;;;;11.40;99.90;;;;;;5100916;28;20295;-40
2022/11/06 04:40:42;;;;;;;;;;;11.30;99.90;;;;;;5115727;28;19911;-38
2022/11/06 04:43:17;;;;;;;;;;;11.30;99.90;;;;;;5111978;28;19970;-40
2022/11/06 04:45:46;;;;;;;;;;;11.30;99.90;;;;;;5096016;28;20276;-33
2022/11/06 04:48:12;;;;;;;;;;;11.30;99.90;;;;;;5112158;28;20026;-34
2022/11/06 04:50:41;;;;;;;;;;;11.30;99.90;;;;;;5101428;28;19944;-37
2022/11/06 04:53:08;;;;;;;;;;;11.30;99.90;;;;;;5107937;28;19950;-30
2022/11/06 04:55:37;;;;;;;;;;;11.30;99.90;;;;;;5096014;28;19908;-30
2022/11/06 04:58:03;;;;;;;;;;;11.40;99.90;;;;;;5105579;28;19908;-34
2022/11/06 05:00:28;;;;;;;;;;;11.40;99.90;;;;;;5098358;28;20298;-37
2022/11/06 05:02:54;;;;;;;;;;;11.40;99.90;;;;;;5099207;28;19908;-31
2022/11/06 05:05:19;;;;;;;;;;;11.40;99.90;;;;;;5107090;28;19908;-32
2022/11/06 05:07:45;;;;;;;;;;;11.40;99.90;;;;;;5104409;28;19911;-33
2022/11/06 05:10:10;;;;;;;;;;;11.40;99.90;;;;;;5115300;28;19903;-36
2022/11/06 05:12:36;;;;;;;;;;;11.40;99.90;;;;;;5111705;28;19912;-32
2022/11/06 05:15:01;;;;;;;;;;;11.40;99.90;;;;;;5112245;28;19915;-34
2022/11/06 05:17:27;;;;;;;;;;;11.40;99.90;;;;;;5114881;28;20372;-31
2022/11/06 05:19:52;;;;;;;;;;;11.40;99.90;;;;;;5111861;28;20448;-30
2022/11/06 05:25:02;;;;;;;;;;;11.50;99.90;;;;;;5114616;28;19911;-35
2022/11/06 05:27:27;;;;;;;;;;;11.40;99.90;;;;;;5107335;28;19908;-39
2022/11/06 05:29:53;;;;;;;;;;;11.40;99.90;;;;;;5101524;28;19908;-40
2022/11/06 05:32:18;;;;;;;;;;;11.50;99.90;;;;;;5102296;28;20367;-36
2022/11/06 05:34:45;;;;;;;;;;;11.40;99.90;;;;;;5098237;28;19918;-39
2022/11/06 05:37:11;;;;;;;;;;;11.50;99.90;;;;;;5101247;28;19908;-38
2022/11/06 05:39:36;;;;;;;;;;;11.50;99.90;;;;;;5113841;28;20260;-38
2022/11/06 05:42:02;;;;;;;;;;;11.50;99.90;;;;;;5113547;28;20418;-39
2022/11/06 05:44:27;;;;;;;;;;;11.50;99.90;;;;;;5099211;28;20286;-41
2022/11/06 05:46:53;;;;;;;;;;;11.50;99.90;;;;;;5097959;28;19908;-40
2022/11/06 05:49:18;;;;;;;;;;;11.50;99.90;;;;;;5094326;28;19927;-38
2022/11/06 05:51:44;;;;;;;;;;;11.50;99.90;;;;;;5094357;28;20332;-39
2022/11/06 05:54:09;;;;;;;;;;;11.50;99.90;;;;;;5095333;28;19998;-39
2022/11/06 05:56:35;;;;;;;;;;;11.60;99.90;;;;;;5108932;28;19960;-39
2022/11/06 05:59:00;;;;;;;;;;;11.60;99.90;;;;;;5098911;28;19915;-39
2022/11/06 06:01:26;;;;;;;;;;;11.50;99.90;;;;;;5110083;28;20375;-39
2022/11/06 06:03:51;;;;;;;;;;;11.50;99.90;;;;;;5101099;28;19908;-39
2022/11/06 06:06:17;;;;;;;;;;;11.50;99.90;;;;;;5094766;28;20276;-39
2022/11/06 06:08:43;;;;;;;;;;;11.50;99.90;;;;;;5095047;28;20279;-38
2022/11/06 06:11:08;;;;;;;;;;;11.40;99.90;;;;;;5095301;28;19912;-51
2022/11/06 06:13:34;;;;;;;;;;;11.40;99.90;;;;;;5102749;28;19908;-38
2022/11/06 06:16:01;;;;;;;;;;;11.40;99.90;;;;;;5095268;28;19908;-38
2022/11/06 06:18:26;;;;;;;;;;;11.40;99.90;;;;;;5105158;28;19914;-38
2022/11/06 06:20:52;;;;;;;;;;;11.50;99.90;;;;;;5105385;28;19919;-38
2022/11/06 06:23:17;;;;;;;;;;;11.50;99.90;;;;;;5096355;28;19915;-38
2022/11/06 06:25:43;;;;;;;;;;;11.50;99.90;;;;;;5094396;28;19908;-39
2022/11/06 06:28:08;;;;;;;;;;;11.40;99.90;;;;;;5094989;28;19912;-39
2022/11/06 06:30:34;;;;;;;;;;;11.40;99.90;;;;;;5104754;28;20276;-39
2022/11/06 06:33:04;;;;;;;;;;;11.50;99.90;;;;;;5099087;28;19931;-41
2022/11/06 06:35:29;;;;;;;;;;;11.40;99.90;;;;;;5110773;28;19960;-37
2022/11/06 06:37:55;;;;;;;;;;;11.50;99.90;;;;;;5112773;28;19994;-39
2022/11/06 06:40:21;;;;;;;;;;;11.50;99.90;;;;;;5097918;28;20299;-38
2022/11/06 06:42:47;;;;;;;;;;;11.50;99.90;;;;;;5109741;28;20006;-33
2022/11/06 06:45:13;;;;;;;;;;;11.50;99.90;;;;;;5092372;28;19951;-35
2022/11/06 06:47:38;;;;;;;;;;;11.50;99.90;;;;;;5102773;28;20029;-31
2022/11/06 06:50:04;;;;;;;;;;;11.40;99.90;;;;;;5106885;28;19912;-31
2022/11/06 06:52:29;;;;;;;;;;;11.40;99.90;;;;;;5097123;28;20387;-32
2022/11/06 06:54:55;;;;;;;;;;;11.50;99.90;;;;;;5109503;28;19953;-31
2022/11/06 06:57:20;;;;;;;;;;;11.50;99.90;;;;;;5106127;28;19909;-32
2022/11/06 06:59:46;;;;;;;;;;;11.50;99.90;;;;;;5094481;28;19916;-30
2022/11/06 07:02:12;;;;;;;;;;;11.50;99.90;;;;;;5100309;28;19907;-37
2022/11/06 07:04:38;;;;;;;;;;;11.50;99.90;;;;;;5108848;28;19912;-31
2022/11/06 07:07:04;;;;;;;;;;;11.40;99.90;;;;;;5100696;28;20450;-39
2022/11/06 07:09:30;;;;;;;;;;;11.40;99.90;;;;;;5111508;28;19911;-40
2022/11/06 07:11:56;;;;;;;;;;;11.40;99.90;;;;;;5101869;28;20380;-43
2022/11/06 07:14:21;;;;;;;;;;;11.40;99.90;;;;;;5099466;28;19954;-39
2022/11/06 07:16:47;;;;;;;;;;;11.30;99.90;;;;;;5102167;28;20395;-39
2022/11/06 07:19:12;;;;;;;;;;;11.40;99.90;;;;;;5112204;28;19960;-38
2022/11/06 07:21:38;;;;;;;;;;;11.40;99.90;;;;;;5094149;28;20042;-38
2022/11/06 07:24:03;;;;;;;;;;;11.40;99.90;;;;;;5094525;28;19915;-39
2022/11/06 07:26:29;;;;;;;;;;;11.40;99.90;;;;;;5109536;28;19969;-38
2022/11/06 07:28:54;;;;;;;;;;;11.40;99.90;;;;;;5098294;28;19908;-39
2022/11/06 07:31:20;;;;;;;;;;;11.40;99.90;;;;;;5100153;28;19908;-39
2022/11/06 07:33:45;;;;;;;;;;;11.50;99.90;;;;;;5109643;28;19907;-49
2022/11/06 07:36:11;;;;;;;;;;;11.50;99.90;;;;;;5094866;28;19908;-33
2022/11/06 07:38:38;;;;;;;;;;;11.50;99.90;;;;;;5094451;28;19919;-32
2022/11/06 07:41:05;;;;;;;;;;;11.50;99.90;;;;;;5095774;28;20316;-32
2022/11/06 07:43:31;;;;;;;;;;;11.50;99.90;;;;;;5102388;28;20363;-36
2022/11/06 07:46:00;;;;;;;;;;;11.60;99.90;;;;;;5097451;28;19908;-32
2022/11/06 07:48:26;;;;;;;;;;;11.60;99.90;;;;;;5096090;28;20395;-30
2022/11/06 07:50:52;;;;;;;;;;;11.70;99.90;;;;;;5110802;28;20003;-31
2022/11/06 07:53:17;;;;;;;;;;;11.70;99.90;;;;;;5116754;28;20420;-34
2022/11/06 07:55:49;;;;;;;;;;;11.80;99.90;;;;;;5105236;28;19907;-31
2022/11/06 07:58:15;;;;;;;;;;;11.90;99.90;;;;;;5111200;28;19907;-32
2022/11/06 08:00:45;;;;;;;;;;;12.00;99.90;;;;;;5108794;28;19919;-34
2022/11/06 08:03:10;;;;;;;;;;;12.00;99.90;;;;;;5106140;28;19938;-32
2022/11/06 08:05:35;;;;;;;;;;;12.20;99.90;;;;;;5107494;28;19907;-37
2022/11/06 08:08:01;;;;;;;;;;;12.30;99.90;;;;;;5116273;28;19908;-33
2022/11/06 08:10:26;;;;;;;;;;;12.40;99.90;;;;;;5095594;28;20378;-33
2022/11/06 08:12:52;;;;;;;;;;;12.60;99.90;;;;;;5101629;28;19915;-31
2022/11/06 08:15:17;;;;;;;;;;;12.80;99.90;;;;;;5104978;28;20426;-37
2022/11/06 08:17:43;;;;;;;;;;;13.00;99.90;;;;;;5098912;28;19915;-32
2022/11/06 08:20:08;;;;;;;;;;;13.10;99.90;;;;;;5112227;28;20430;-31
2022/11/06 08:22:34;;;;;;;;;;;13.20;99.90;;;;;;5115539;28;19908;-33
2022/11/06 08:24:59;;;;;;;;;;;13.20;99.90;;;;;;5116988;28;19907;-33
2022/11/06 08:27:26;;;;;;;;;;;13.20;99.90;;;;;;5114011;28;19908;-40
2022/11/06 08:29:52;;;;;;;;;;;13.10;99.90;;;;;;5113609;28;19908;-41
2022/11/06 08:32:17;;;;;;;;;;;13.10;99.90;;;;;;5115641;28;20290;-40
2022/11/06 08:34:43;;;;;;;;;;;13.00;99.90;;;;;;5105120;28;19914;-39
2022/11/06 08:37:09;;;;;;;;;;;13.00;99.90;;;;;;5113423;28;19912;-38
2022/11/06 08:39:34;;;;;;;;;;;13.00;99.90;;;;;;5107991;28;19922;-40
2022/11/06 08:42:00;;;;;;;;;;;13.00;99.90;;;;;;5106580;28;19911;-39
2022/11/06 08:44:26;;;;;;;;;;;13.10;99.90;;;;;;5100051;28;19923;-41
2022/11/06 08:46:51;;;;;;;;;;;13.10;99.90;;;;;;5097653;28;20119;-33
2022/11/06 08:49:17;;;;;;;;;;;13.00;99.90;;;;;;5107667;28;20388;-32
2022/11/06 08:51:43;;;;;;;;;;;13.00;99.90;;;;;;5096742;28;19915;-33
2022/11/06 08:54:09;;;;;;;;;;;13.10;99.90;;;;;;5101883;28;20041;-32
2022/11/06 08:56:34;;;;;;;;;;;13.10;99.90;;;;;;5109506;28;19915;-41
2022/11/06 08:59:00;;;;;;;;;;;13.20;99.90;;;;;;5111264;28;19908;-33
2022/11/06 09:01:25;;;;;;;;;;;13.20;99.90;;;;;;5109099;28;20006;-33
2022/11/06 09:03:51;;;;;;;;;;;13.20;99.90;;;;;;5106426;28;19908;-41
2022/11/06 09:06:17;;;;;;;;;;;13.20;99.90;;;;;;5108588;28;19977;-32
2022/11/06 09:08:42;;;;;;;;;;;13.20;99.90;;;;;;5101950;28;19911;-35
2022/11/06 09:11:09;;;;;;;;;;;13.30;99.90;;;;;;5113480;28;19942;-36
2022/11/06 09:13:35;;;;;;;;;;;13.30;99.90;;;;;;5111220;27;20276;-30
2022/11/06 09:16:01;;;;;;;;;;;13.40;99.90;;;;;;5103754;28;19908;-37
2022/11/06 09:18:26;;;;;;;;;;;13.30;99.90;;;;;;5094887;28;19907;-35
2022/11/06 09:20:55;;;;;;;;;;;13.30;99.90;;;;;;5105339;28;19916;-32
2022/11/06 09:23:21;;;;;;;;;;;13.40;99.90;;;;;;5094395;28;19953;-34
2022/11/06 09:25:46;;;;;;;;;;;13.50;99.90;;;;;;5094701;28;19907;-37
2022/11/06 09:28:12;;;;;;;;;;;13.40;99.90;;;;;;5099474;28;19937;-35
2022/11/06 09:30:37;;;;;;;;;;;13.50;99.90;;;;;;5099148;28;19911;-32
2022/11/06 09:33:03;;;;;;;;;;;13.40;99.90;;;;;;5105133;28;19908;-31
2022/11/06 09:35:30;;;;;;;;;;;13.40;99.90;;;;;;5104123;28;19911;-30
2022/11/06 09:38:02;;;;;;;;;;;13.40;99.90;;;;;;5114845;28;19927;-40
2022/11/06 09:40:34;;;;;;;;;;;13.40;99.90;;;;;;5102194;28;19919;-34
2022/11/06 09:43:02;;;;;;;;;;;13.40;99.90;;;;;;5112411;28;19919;-33
2022/11/06 09:45:29;;;;;;;;;;;13.40;99.90;;;;;;5101362;28;20423;-49
2022/11/06 09:48:01;;;;;;;;;;;13.50;99.90;;;;;;5101944;28;19915;-40
2022/11/06 09:50:29;;;;;;;;;;;13.50;99.90;;;;;;5095105;28;19923;-33
2022/11/06 09:53:08;;;;;;;;;;;13.50;99.90;;;;;;5097878;28;20048;-34
2022/11/06 09:55:37;;;;;;;;;;;13.50;99.90;;;;;;5112720;28;19922;-32
2022/11/06 09:58:10;;;;;;;;;;;13.50;99.90;;;;;;5105353;28;19915;-38
2022/11/06 10:00:37;;;;;;;;;;;13.50;99.90;;;;;;5094840;28;19915;-39
2022/11/06 10:03:05;;;;;;;;;;;13.50;99.90;;;;;;5094603;28;19908;-41
2022/11/06 10:05:35;;;;;;;;;;;13.50;99.90;;;;;;5094627;28;20283;-39
2022/11/06 10:08:21;;;;;;;;;;;13.50;99.90;;;;;;5102548;28;19914;-39
2022/11/06 10:11:05;;;;;;;;;;;13.50;99.90;;;;;;5093620;28;19934;-39
2022/11/06 10:13:48;;;;;;;;;;;13.50;99.90;;;;;;5111607;28;19915;-39
2022/11/06 10:16:32;;;;;;;;;;;13.50;99.90;;;;;;5101606;28;20306;-41
2022/11/06 10:18:58;;;;;;;;;;;13.50;99.90;;;;;;5106951;28;19908;-43
2022/11/06 10:21:24;;;;;;;;;;;13.60;99.90;;;;;;5101955;28;20415;-39
2022/11/06 10:23:58;;;;;;;;;;;13.60;99.90;;;;;;5104948;28;20282;-41
2022/11/06 10:26:38;;;;;;;;;;;13.50;99.90;;;;;;5113363;28;20049;-39
2022/11/06 10:29:22;;;;;;;;;;;13.40;99.90;;;;;;5108608;28;19966;-43
2022/11/06 10:32:02;;;;;;;;;;;13.40;99.90;;;;;;5111832;28;19907;-41
2022/11/06 10:34:28;;;;;;;;;;;13.40;99.90;;;;;;5093549;28;20693;-40
2022/11/06 10:36:55;;;;;;;;;;;13.40;99.90;;;;;;5095637;28;19904;-39
2022/11/06 10:39:27;;;;;;;;;;;13.40;99.90;;;;;;5093750;28;19912;-41
2022/11/06 10:42:04;;;;;;;;;;;13.40;99.90;;;;;;5094065;28;20356;-44
2022/11/06 10:44:59;;;;;;;;;;;13.50;99.90;;;;;;5101370;28;20360;-40
2022/11/06 10:47:29;;;;;;;;;;;13.70;99.90;;;;;;5087726;28;19933;-40
2022/11/06 10:49:56;;;;;;;;;;;13.80;99.90;;;;;;5097344;28;19990;-60
2022/11/06 10:52:40;;;;;;;;;;;13.80;99.90;;;;;;5095752;28;19911;-41
2022/11/06 10:55:12;;;;;;;;;;;13.90;99.90;;;;;;5091726;28;20348;-42
2022/11/06 10:57:43;;;;;;;;;;;13.80;99.90;;;;;;5112256;28;19907;-51
2022/11/06 11:00:13;;;;;;;;;;;13.90;99.90;;;;;;5094466;28;20168;-40
2022/11/06 11:02:40;;;;;;;;;;;13.80;99.90;;;;;;5098354;28;20287;-40
2022/11/06 11:05:10;;;;;;;;;;;13.70;99.90;;;;;;5092960;28;19916;-40
2022/11/06 11:07:36;;;;;;;;;;;13.70;99.90;;;;;;5102405;28;19980;-40
2022/11/06 11:10:27;;;;;;;;;;;13.70;99.90;;;;;;5094713;28;19912;-38
2022/11/06 11:12:54;;;;;;;;;;;13.70;99.90;;;;;;5090450;28;19915;-36
2022/11/06 11:15:21;;;;;;;;;;;13.70;99.90;;;;;;5098840;28;19947;-37
2022/11/06 11:18:07;;;;;;;;;;;13.70;99.90;;;;;;5109758;28;20402;-33
2022/11/06 11:20:33;;;;;;;;;;;13.70;99.90;;;;;;5097986;28;20347;-39
2022/11/06 11:23:15;;;;;;;;;;;13.80;99.90;;;;;;5096275;28;19912;-32
2022/11/06 11:25:48;;;;;;;;;;;13.70;99.90;;;;;;5091932;28;19903;-32
2022/11/06 11:28:20;;;;;;;;;;;13.60;99.90;;;;;;5096628;28;20434;-34
2022/11/06 11:30:58;;;;;;;;;;;13.60;99.90;;;;;;5093823;28;19955;-35
2022/11/06 11:33:25;;;;;;;;;;;13.50;99.90;;;;;;5096213;28;19997;-31
2022/11/06 11:35:51;;;;;;;;;;;13.60;99.90;;;;;;5085079;28;19908;-37
2022/11/06 11:38:17;;;;;;;;;;;13.60;99.90;;;;;;5093815;28;19908;-33
2022/11/06 11:40:43;;;;;;;;;;;13.60;99.90;;;;;;5096195;28;19965;-33
2022/11/06 11:43:14;;;;;;;;;;;13.50;99.90;;;;;;5092311;28;19911;-31
2022/11/06 11:45:40;;;;;;;;;;;13.70;99.90;;;;;;5099643;28;19908;-31
2022/11/06 11:48:11;;;;;;;;;;;13.60;99.90;;;;;;5101066;28;20374;-33
2022/11/06 11:50:37;;;;;;;;;;;13.50;99.90;;;;;;5090185;28;20499;-36
2022/11/06 11:53:19;;;;;;;;;;;13.50;99.90;;;;;;5098572;28;20004;-30
2022/11/06 11:55:46;;;;;;;;;;;13.50;99.90;;;;;;5093060;28;20339;-32
2022/11/06 11:58:20;;;;;;;;;;;13.50;99.90;;;;;;5105691;28;19907;-31
2022/11/06 12:01:06;;;;;;;;;;;13.50;99.90;;;;;;5113214;28;19915;-32
2022/11/06 12:03:34;;;;;;;;;;;13.50;99.90;;;;;;5104627;28;19908;-31
2022/11/06 12:06:04;;;;;;;;;;;13.60;99.90;;;;;;5094015;28;19961;-33
2022/11/06 12:08:30;;;;;;;;;;;13.60;99.90;;;;;;5094520;28;19912;-33
2022/11/06 12:11:01;;;;;;;;;;;13.70;99.90;;;;;;5109044;28;20310;-37
2022/11/06 12:13:26;;;;;;;;;;;13.70;99.90;;;;;;5112151;28;20375;-33
2022/11/06 12:16:03;;;;;;;;;;;13.70;99.90;;;;;;5112262;28;19910;-32
2022/11/06 12:18:38;;;;;;;;;;;13.80;99.90;;;;;;5111294;28;19926;-32
2022/11/06 12:21:09;;;;;;;;;;;13.80;99.90;;;;;;5113373;28;20181;-32
2022/11/06 12:23:40;;;;;;;;;;;13.80;99.90;;;;;;5113192;28;20033;-33
2022/11/06 12:26:10;;;;;;;;;;;13.70;99.90;;;;;;5113394;28;19903;-31
2022/11/06 12:28:39;;;;;;;;;;;13.70;99.90;;;;;;5113144;28;19904;-33
2022/11/06 12:31:10;;;;;;;;;;;13.60;99.90;;;;;;5113195;28;20276;-35
2022/11/06 12:33:37;;;;;;;;;;;13.60;99.90;;;;;;5113982;28;19915;-30
2022/11/06 12:36:05;;;;;;;;;;;13.60;99.90;;;;;;5116872;28;19903;-32
2022/11/06 12:38:34;;;;;;;;;;;13.50;99.90;;;;;;5105524;28;19914;-37
2022/11/06 12:40:59;;;;;;;;;;;13.50;99.90;;;;;;5103680;28;19950;-32
2022/11/06 12:43:37;;;;;;;;;;;13.50;99.90;;;;;;5116716;28;19949;-53
2022/11/06 12:46:13;;;;;;;;;;;13.60;99.90;;;;;;5104191;28;19945;-42
2022/11/06 12:48:59;;;;;;;;;;;13.60;99.90;;;;;;5099095;28;20352;-33
2022/11/06 12:51:36;;;;;;;;;;;13.60;99.90;;;;;;5080508;28;19908;-32
2022/11/06 12:54:10;;;;;;;;;;;13.60;99.90;;;;;;5098549;28;19954;-32
2022/11/06 12:56:52;;;;;;;;;;;13.60;99.90;;;;;;5106308;28;19907;-32
2022/11/06 12:59:37;;;;;;;;;;;13.70;99.90;;;;;;5098985;28;20371;-32
2022/11/06 13:02:20;;;;;;;;;;;13.70;99.90;;;;;;5096830;28;19908;-34
2022/11/06 13:04:48;;;;;;;;;;;13.60;99.90;;;;;;5102371;28;19961;-34
2022/11/06 13:07:40;;;;;;;;;;;13.70;99.90;;;;;;5102776;28;19914;-32
2022/11/06 13:10:08;;;;;;;;;;;13.60;99.90;;;;;;5085523;28;19912;-38
2022/11/06 13:12:57;;;;;;;;;;;13.60;99.90;;;;;;5100227;28;20356;-31
2022/11/06 13:15:22;;;;;;;;;;;13.60;99.90;;;;;;5077228;28;19958;-32
2022/11/06 13:17:54;;;;;;;;;;;13.50;99.90;;;;;;5105238;28;20375;-30
2022/11/06 13:20:38;;;;;;;;;;;13.40;99.90;;;;;;5100785;28;19969;-35
2022/11/06 13:23:27;;;;;;;;;;;13.20;99.90;;;;;;5101417;28;19941;-35
2022/11/06 13:25:58;;;;;;;;;;;13.00;99.90;;;;;;5094277;28;19911;-34
2022/11/06 13:28:36;;;;;;;;;;;12.70;99.90;;;;;;5091519;28;19907;-42
2022/11/06 13:31:04;;;;;;;;;;;12.60;99.90;;;;;;5112474;28;20363;-34
2022/11/06 13:33:33;;;;;;;;;;;12.40;99.90;;;;;;5095517;28;20244;-33
2022/11/06 13:39:18;;;;;;;;;;;12.20;99.90;;;;;;5095533;28;19910;-34
2022/11/06 13:41:44;;;;;;;;;;;12.10;99.90;;;;;;5072111;28;19918;-30
2022/11/06 13:44:15;;;;;;;;;;;11.90;99.90;;;;;;5105808;28;19998;-31
2022/11/06 13:46:57;;;;;;;;;;;11.80;99.90;;;;;;5095485;28;20363;-37
2022/11/06 13:49:41;;;;;;;;;;;11.60;99.90;;;;;;5095067;28;19908;-31
2022/11/06 13:52:12;;;;;;;;;;;11.50;99.90;;;;;;5094353;28;19917;-32
2022/11/06 13:54:43;;;;;;;;;;;11.40;99.90;;;;;;5096140;28;19974;-32
2022/11/06 13:57:09;;;;;;;;;;;11.30;99.90;;;;;;5110899;28;19908;-34
2022/11/06 13:59:45;;;;;;;;;;;11.20;99.90;;;;;;5112107;28;20352;-30
2022/11/06 14:02:11;;;;;;;;;;;11.20;99.90;;;;;;5102527;28;20402;-32
2022/11/06 14:04:45;;;;;;;;;;;11.10;99.90;;;;;;5100009;28;19908;-34
2022/11/06 14:07:11;;;;;;;;;;;11.10;99.90;;;;;;5094887;28;20257;-31
2022/11/06 14:09:41;;;;;;;;;;;11.00;99.90;;;;;;5092166;28;19912;-30
2022/11/06 14:12:11;;;;;;;;;;;11.00;99.90;;;;;;5109041;28;20013;-31
2022/11/06 14:14:37;;;;;;;;;;;10.90;99.90;;;;;;5108774;28;19953;-32
2022/11/06 14:17:11;;;;;;;;;;;10.90;99.90;;;;;;5108592;28;20371;-34
2022/11/06 14:19:37;;;;;;;;;;;10.80;99.90;;;;;;5094608;28;20284;-39
2022/11/06 14:22:08;;;;;;;;;;;10.80;99.90;;;;;;5094534;28;19934;-39
2022/11/06 14:24:38;;;;;;;;;;;10.70;99.90;;;;;;5101525;28;19911;-40
2022/11/06 14:27:07;;;;;;;;;;;10.70;99.90;;;;;;5094437;28;19915;-39
2022/11/06 14:29:33;;;;;;;;;;;10.70;99.90;;;;;;5094263;28;19908;-39
2022/11/06 14:32:09;;;;;;;;;;;10.60;99.90;;;;;;5097247;28;19953;-42
2022/11/06 14:34:36;;;;;;;;;;;10.60;99.90;;;;;;5112398;28;19907;-39
2022/11/06 14:37:17;;;;;;;;;;;10.50;99.90;;;;;;5102688;28;20090;-40
2022/11/06 14:39:54;;;;;;;;;;;10.50;99.90;;;;;;5102060;28;20352;-32
2022/11/06 14:42:22;;;;;;;;;;;10.50;99.90;;;;;;5108968;28;20372;-32
2022/11/06 14:45:14;;;;;;;;;;;10.50;99.90;;;;;;5092903;28;19913;-36